sensor_id;sensor_type;location;lat;lon;timestamp;pressure;altitude;pressure_sealevel;temperature;humidity
65872;BME280;52653;50.080;21.992;2022-12-10T00:02:13;97735.11;;;3.20;94.14
65872;BME280;52653;50.080;21.992;2022-12-10T00:04:45;97730.77;;;3.22;94.29
65872;BME280;52653;50.080;21.992;2022-12-10T00:07:19;97731.63;;;3.22;94.17
65872;BME280;52653;50.080;21.992;2022-12-10T00:09:51;97732.31;;;3.23;94.27
65872;BME280;52653;50.080;21.992;2022-12-10T00:12:23;97729.36;;;3.24;94.24
65872;BME280;52653;50.080;21.992;2022-12-10T00:14:55;97723.80;;;3.28;94.26
65872;BME280;52653;50.080;21.992;2022-12-10T00:17:28;97719.83;;;3.31;94.52
65872;BME280;52653;50.080;21.992;2022-12-10T00:20:00;97720.51;;;3.33;94.36
65872;BME280;52653;50.080;21.992;2022-12-10T00:22:32;97715.84;;;3.32;94.31
65872;BME280;52653;50.080;21.992;2022-12-10T00:25:05;97712.19;;;3.29;94.27
65872;BME280;52653;50.080;21.992;2022-12-10T00:27:37;97709.79;;;3.23;94.20
65872;BME280;52653;50.080;21.992;2022-12-10T00:30:12;97712.05;;;3.21;94.21
65872;BME280;52653;50.080;21.992;2022-12-10T00:32:44;97710.67;;;3.18;94.11
65872;BME280;52653;50.080;21.992;2022-12-10T00:35:17;97710.48;;;3.17;94.29
65872;BME280;52653;50.080;21.992;2022-12-10T00:37:49;97709.81;;;3.18;94.16
65872;BME280;52653;50.080;21.992;2022-12-10T00:40:22;97710.16;;;3.21;94.38
65872;BME280;52653;50.080;21.992;2022-12-10T00:42:55;97709.80;;;3.22;94.46
65872;BME280;52653;50.080;21.992;2022-12-10T00:45:27;97710.84;;;3.22;94.29
65872;BME280;52653;50.080;21.992;2022-12-10T00:48:00;97711.17;;;3.24;94.36
65872;BME280;52653;50.080;21.992;2022-12-10T00:50:32;97709.08;;;3.27;94.49
65872;BME280;52653;50.080;21.992;2022-12-10T00:53:04;97707.01;;;3.31;94.50
65872;BME280;52653;50.080;21.992;2022-12-10T00:55:36;97704.41;;;3.32;94.46
65872;BME280;52653;50.080;21.992;2022-12-10T00:58:09;97706.30;;;3.35;94.53
65872;BME280;52653;50.080;21.992;2022-12-10T01:00:41;97711.83;;;3.36;94.48
65872;BME280;52653;50.080;21.992;2022-12-10T01:03:13;97704.88;;;3.40;94.55
65872;BME280;52653;50.080;21.992;2022-12-10T01:05:48;97698.12;;;3.39;94.28
65872;BME280;52653;50.080;21.992;2022-12-10T01:08:20;97695.52;;;3.39;94.21
65872;BME280;52653;50.080;21.992;2022-12-10T01:10:55;97689.98;;;3.37;94.18
65872;BME280;52653;50.080;21.992;2022-12-10T01:13:27;97692.96;;;3.33;94.14
65872;BME280;52653;50.080;21.992;2022-12-10T01:16:01;97693.14;;;3.26;94.01
65872;BME280;52653;50.080;21.992;2022-12-10T01:18:34;97694.20;;;3.22;94.13
65872;BME280;52653;50.080;21.992;2022-12-10T01:21:07;97696.83;;;3.19;94.30
65872;BME280;52653;50.080;21.992;2022-12-10T01:23:41;97696.81;;;3.18;94.32
65872;BME280;52653;50.080;21.992;2022-12-10T01:26:15;97695.78;;;3.18;94.38
65872;BME280;52653;50.080;21.992;2022-12-10T01:28:49;97703.56;;;3.21;94.45
65872;BME280;52653;50.080;21.992;2022-12-10T01:31:24;97698.86;;;3.25;94.78
65872;BME280;52653;50.080;21.992;2022-12-10T01:33:57;97693.31;;;3.30;94.80
65872;BME280;52653;50.080;21.992;2022-12-10T01:36:31;97686.72;;;3.35;94.83
65872;BME280;52653;50.080;21.992;2022-12-10T01:39:06;97686.16;;;3.38;94.76
65872;BME280;52653;50.080;21.992;2022-12-10T01:41:40;97682.86;;;3.43;94.76
65872;BME280;52653;50.080;21.992;2022-12-10T01:47:15;97676.77;;;3.50;94.58
65872;BME280;52653;50.080;21.992;2022-12-10T01:49:47;97675.89;;;3.52;94.52
65872;BME280;52653;50.080;21.992;2022-12-10T01:52:22;97671.02;;;3.58;95.01
65872;BME280;52653;50.080;21.992;2022-12-10T01:54:54;97675.86;;;3.60;94.88
65872;BME280;52653;50.080;21.992;2022-12-10T01:57:27;97679.34;;;3.58;93.96
65872;BME280;52653;50.080;21.992;2022-12-10T02:00:03;97676.91;;;3.59;94.39
65872;BME280;52653;50.080;21.992;2022-12-10T02:02:53;97673.43;;;3.61;94.30
65872;BME280;52653;50.080;21.992;2022-12-10T02:05:33;97668.77;;;3.59;94.03
65872;BME280;52653;50.080;21.992;2022-12-10T02:08:13;97668.23;;;3.59;93.90
65872;BME280;52653;50.080;21.992;2022-12-10T02:11:03;97674.83;;;3.60;93.84
65872;BME280;52653;50.080;21.992;2022-12-10T02:13:41;97673.26;;;3.61;93.25
65872;BME280;52653;50.080;21.992;2022-12-10T02:16:17;97677.95;;;3.60;93.38
65872;BME280;52653;50.080;21.992;2022-12-10T02:18:55;97680.20;;;3.60;93.29
65872;BME280;52653;50.080;21.992;2022-12-10T02:21:34;97682.27;;;3.62;93.43
65872;BME280;52653;50.080;21.992;2022-12-10T02:24:08;97682.11;;;3.60;92.99
65872;BME280;52653;50.080;21.992;2022-12-10T02:26:45;97684.02;;;3.56;92.90
65872;BME280;52653;50.080;21.992;2022-12-10T02:29:22;97683.32;;;3.55;92.88
65872;BME280;52653;50.080;21.992;2022-12-10T02:31:59;97684.54;;;3.55;93.06
65872;BME280;52653;50.080;21.992;2022-12-10T02:34:37;97683.52;;;3.57;93.25
65872;BME280;52653;50.080;21.992;2022-12-10T02:37:14;97684.02;;;3.57;93.27
65872;BME280;52653;50.080;21.992;2022-12-10T02:39:51;97681.63;;;3.49;92.83
65872;BME280;52653;50.080;21.992;2022-12-10T02:42:26;97682.02;;;3.40;92.65
65872;BME280;52653;50.080;21.992;2022-12-10T02:45:01;97693.67;;;3.29;92.68
65872;BME280;52653;50.080;21.992;2022-12-10T02:47:34;97703.41;;;3.20;93.06
65872;BME280;52653;50.080;21.992;2022-12-10T02:50:11;97707.73;;;3.19;93.31
65872;BME280;52653;50.080;21.992;2022-12-10T02:52:44;97709.80;;;3.23;93.63
65872;BME280;52653;50.080;21.992;2022-12-10T02:55:17;97707.90;;;3.19;93.30
65872;BME280;52653;50.080;21.992;2022-12-10T02:58:02;97705.47;;;3.17;93.29
65872;BME280;52653;50.080;21.992;2022-12-10T03:00:43;97708.08;;;3.15;93.06
65872;BME280;52653;50.080;21.992;2022-12-10T03:03:28;97703.93;;;3.12;93.23
65872;BME280;52653;50.080;21.992;2022-12-10T03:06:09;97699.41;;;3.15;93.65
65872;BME280;52653;50.080;21.992;2022-12-10T03:08:47;97705.66;;;3.13;93.23
65872;BME280;52653;50.080;21.992;2022-12-10T03:11:24;97699.94;;;3.15;93.36
65872;BME280;52653;50.080;21.992;2022-12-10T03:14:00;97693.70;;;3.18;93.89
65872;BME280;52653;50.080;21.992;2022-12-10T03:16:39;97695.61;;;3.18;93.38
65872;BME280;52653;50.080;21.992;2022-12-10T03:19:15;97696.64;;;3.20;93.53
65872;BME280;52653;50.080;21.992;2022-12-10T03:21:50;97695.95;;;3.20;93.51
65872;BME280;52653;50.080;21.992;2022-12-10T03:24:27;97695.26;;;3.20;93.41
65872;BME280;52653;50.080;21.992;2022-12-10T03:26:59;97696.30;;;3.19;93.52
65872;BME280;52653;50.080;21.992;2022-12-10T03:29:35;97694.22;;;3.18;93.24
65872;BME280;52653;50.080;21.992;2022-12-10T03:32:09;97695.77;;;3.15;92.88
65872;BME280;52653;50.080;21.992;2022-12-10T03:34:43;97705.32;;;3.12;92.90
65872;BME280;52653;50.080;21.992;2022-12-10T03:37:16;97709.48;;;3.09;92.61
65872;BME280;52653;50.080;21.992;2022-12-10T03:39:49;97716.95;;;3.03;92.64
65872;BME280;52653;50.080;21.992;2022-12-10T03:42:22;97718.69;;;2.99;93.05
65872;BME280;52653;50.080;21.992;2022-12-10T03:44:55;97720.95;;;2.95;92.92
65872;BME280;52653;50.080;21.992;2022-12-10T03:47:27;97725.09;;;2.90;92.99
65872;BME280;52653;50.080;21.992;2022-12-10T03:49:59;97731.16;;;2.88;93.28
65872;BME280;52653;50.080;21.992;2022-12-10T03:52:31;97725.45;;;2.88;93.36
65872;BME280;52653;50.080;21.992;2022-12-10T03:55:04;97725.63;;;2.86;93.27
65872;BME280;52653;50.080;21.992;2022-12-10T03:57:38;97723.37;;;2.87;93.36
65872;BME280;52653;50.080;21.992;2022-12-10T04:00:12;97726.83;;;2.88;93.49
65872;BME280;52653;50.080;21.992;2022-12-10T04:02:45;97728.05;;;2.86;93.30
65872;BME280;52653;50.080;21.992;2022-12-10T04:05:18;97732.20;;;2.87;93.37
65872;BME280;52653;50.080;21.992;2022-12-10T04:07:50;97736.87;;;2.89;93.45
65872;BME280;52653;50.080;21.992;2022-12-10T04:10:23;97744.33;;;2.84;92.92
65872;BME280;52653;50.080;21.992;2022-12-10T04:12:55;97747.79;;;2.79;92.73
65872;BME280;52653;50.080;21.992;2022-12-10T04:15:41;97751.43;;;2.75;92.84
65872;BME280;52653;50.080;21.992;2022-12-10T04:18:31;97750.23;;;2.69;93.00
65872;BME280;52653;50.080;21.992;2022-12-10T04:21:04;97747.98;;;2.67;93.26
65872;BME280;52653;50.080;21.992;2022-12-10T04:23:54;97746.75;;;2.66;93.39
65872;BME280;52653;50.080;21.992;2022-12-10T04:26:44;97746.93;;;2.62;93.20
65872;BME280;52653;50.080;21.992;2022-12-10T04:29:27;97752.81;;;2.54;93.29
65872;BME280;52653;50.080;21.992;2022-12-10T04:32:00;97758.02;;;2.47;93.40
65872;BME280;52653;50.080;21.992;2022-12-10T04:34:32;97759.38;;;2.42;93.59
65872;BME280;52653;50.080;21.992;2022-12-10T04:37:05;97754.02;;;2.42;93.73
65872;BME280;52653;50.080;21.992;2022-12-10T04:39:38;97763.55;;;2.44;93.95
65872;BME280;52653;50.080;21.992;2022-12-10T04:42:11;97760.95;;;2.45;93.77
65872;BME280;52653;50.080;21.992;2022-12-10T04:44:43;97757.14;;;2.46;93.69
65872;BME280;52653;50.080;21.992;2022-12-10T04:47:16;97749.19;;;2.46;93.42
65872;BME280;52653;50.080;21.992;2022-12-10T04:49:48;97750.91;;;2.43;93.23
65872;BME280;52653;50.080;21.992;2022-12-10T04:52:20;97758.17;;;2.43;93.37
65872;BME280;52653;50.080;21.992;2022-12-10T04:54:53;97771.14;;;2.40;93.30
65872;BME280;52653;50.080;21.992;2022-12-10T04:57:25;97772.70;;;2.36;93.10
65872;BME280;52653;50.080;21.992;2022-12-10T04:59:57;97779.62;;;2.32;93.22
65872;BME280;52653;50.080;21.992;2022-12-10T05:02:30;97785.50;;;2.29;93.47
65872;BME280;52653;50.080;21.992;2022-12-10T05:05:02;97782.70;;;2.23;93.36
65872;BME280;52653;50.080;21.992;2022-12-10T05:07:35;97787.73;;;2.20;93.63
65872;BME280;52653;50.080;21.992;2022-12-10T05:10:08;97795.82;;;2.11;93.64
65872;BME280;52653;50.080;21.992;2022-12-10T05:12:41;97800.11;;;2.01;93.76
65872;BME280;52653;50.080;21.992;2022-12-10T05:15:13;97806.16;;;2.01;93.91
65872;BME280;52653;50.080;21.992;2022-12-10T05:17:46;97811.55;;;2.03;94.11
65872;BME280;52653;50.080;21.992;2022-12-10T05:20:18;97819.67;;;2.04;93.91
65872;BME280;52653;50.080;21.992;2022-12-10T05:22:50;97830.91;;;2.04;93.86
65872;BME280;52653;50.080;21.992;2022-12-10T05:25:41;97835.23;;;2.03;93.67
65872;BME280;52653;50.080;21.992;2022-12-10T05:28:23;97837.80;;;1.98;93.39
65872;BME280;52653;50.080;21.992;2022-12-10T05:30:56;97837.94;;;1.91;93.38
65872;BME280;52653;50.080;21.992;2022-12-10T05:33:29;97836.37;;;1.90;93.59
65872;BME280;52653;50.080;21.992;2022-12-10T05:36:03;97831.34;;;1.85;93.45
65872;BME280;52653;50.080;21.992;2022-12-10T05:38:35;97831.68;;;1.85;93.66
65872;BME280;52653;50.080;21.992;2022-12-10T05:41:09;97826.15;;;1.86;93.80
65872;BME280;52653;50.080;21.992;2022-12-10T05:43:43;97824.27;;;1.90;93.81
65872;BME280;52653;50.080;21.992;2022-12-10T05:46:18;97830.02;;;1.98;94.21
65872;BME280;52653;50.080;21.992;2022-12-10T05:48:52;97835.05;;;2.05;94.21
65872;BME280;52653;50.080;21.992;2022-12-10T05:51:27;97836.45;;;2.04;93.54
65872;BME280;52653;50.080;21.992;2022-12-10T05:54:01;97839.36;;;2.02;93.28
65872;BME280;52653;50.080;21.992;2022-12-10T05:56:34;97846.95;;;2.03;93.50
65872;BME280;52653;50.080;21.992;2022-12-10T05:59:08;97854.91;;;2.01;93.60
65872;BME280;52653;50.080;21.992;2022-12-10T06:01:46;97854.04;;;1.98;93.68
65872;BME280;52653;50.080;21.992;2022-12-10T06:04:18;97853.52;;;1.94;93.71
65872;BME280;52653;50.080;21.992;2022-12-10T06:06:51;97860.58;;;1.91;93.50
65872;BME280;52653;50.080;21.992;2022-12-10T06:09:23;97865.91;;;1.86;93.48
65872;BME280;52653;50.080;21.992;2022-12-10T06:11:56;97876.95;;;1.80;93.34
65872;BME280;52653;50.080;21.992;2022-12-10T06:14:28;97880.23;;;1.78;93.40
65872;BME280;52653;50.080;21.992;2022-12-10T06:17:00;97882.48;;;1.79;93.55
65872;BME280;52653;50.080;21.992;2022-12-10T06:19:32;97888.33;;;1.76;93.65
65872;BME280;52653;50.080;21.992;2022-12-10T06:22:05;97886.59;;;1.74;93.55
65872;BME280;52653;50.080;21.992;2022-12-10T06:24:37;97888.33;;;1.74;93.69
65872;BME280;52653;50.080;21.992;2022-12-10T06:27:10;97890.55;;;1.72;93.66
65872;BME280;52653;50.080;21.992;2022-12-10T06:29:42;97897.98;;;1.68;93.38
65872;BME280;52653;50.080;21.992;2022-12-10T06:32:16;97898.98;;;1.65;93.70
65872;BME280;52653;50.080;21.992;2022-12-10T06:34:48;97896.02;;;1.61;93.84
65872;BME280;52653;50.080;21.992;2022-12-10T06:37:20;97903.61;;;1.61;93.96
65872;BME280;52653;50.080;21.992;2022-12-10T06:39:53;97906.55;;;1.59;94.25
65872;BME280;52653;50.080;21.992;2022-12-10T06:42:25;97904.96;;;1.53;94.33
65872;BME280;52653;50.080;21.992;2022-12-10T06:44:57;97898.54;;;1.51;94.56
65872;BME280;52653;50.080;21.992;2022-12-10T06:47:30;97892.00;;;1.53;94.56
65872;BME280;52653;50.080;21.992;2022-12-10T06:50:02;97894.58;;;1.52;94.74
65872;BME280;52653;50.080;21.992;2022-12-10T06:52:35;97897.72;;;1.54;94.76
65872;BME280;52653;50.080;21.992;2022-12-10T06:55:08;97897.22;;;1.59;94.69
65872;BME280;52653;50.080;21.992;2022-12-10T06:57:40;97900.69;;;1.63;94.71
65872;BME280;52653;50.080;21.992;2022-12-10T07:00:14;97920.09;;;1.66;94.72
65872;BME280;52653;50.080;21.992;2022-12-10T07:02:52;97924.02;;;1.62;94.36
65872;BME280;52653;50.080;21.992;2022-12-10T07:05:25;97920.00;;;1.55;94.24
65872;BME280;52653;50.080;21.992;2022-12-10T07:07:57;97928.58;;;1.46;94.34
65872;BME280;52653;50.080;21.992;2022-12-10T07:10:30;97934.74;;;1.40;94.50
65872;BME280;52653;50.080;21.992;2022-12-10T07:13:02;97942.82;;;1.36;94.89
65872;BME280;52653;50.080;21.992;2022-12-10T07:15:34;97941.08;;;1.33;95.07
65872;BME280;52653;50.080;21.992;2022-12-10T07:18:07;97930.91;;;1.35;95.22
65872;BME280;52653;50.080;21.992;2022-12-10T07:20:39;97923.48;;;1.38;95.18
65872;BME280;52653;50.080;21.992;2022-12-10T07:23:11;97925.08;;;1.40;95.05
65872;BME280;52653;50.080;21.992;2022-12-10T07:25:43;97945.14;;;1.43;95.02
65872;BME280;52653;50.080;21.992;2022-12-10T07:28:17;97955.69;;;1.44;94.88
65872;BME280;52653;50.080;21.992;2022-12-10T07:30:49;97961.90;;;1.43;94.88
65872;BME280;52653;50.080;21.992;2022-12-10T07:33:22;97963.61;;;1.41;94.85
65872;BME280;52653;50.080;21.992;2022-12-10T07:35:54;97973.47;;;1.43;94.80
65872;BME280;52653;50.080;21.992;2022-12-10T07:38:27;97973.30;;;1.43;94.73
65872;BME280;52653;50.080;21.992;2022-12-10T07:41:01;97972.11;;;1.45;94.74
65872;BME280;52653;50.080;21.992;2022-12-10T07:43:36;97979.05;;;1.51;94.89
65872;BME280;52653;50.080;21.992;2022-12-10T07:46:10;97984.62;;;1.53;94.87
65872;BME280;52653;50.080;21.992;2022-12-10T07:48:44;97982.16;;;1.52;94.72
65872;BME280;52653;50.080;21.992;2022-12-10T07:51:18;97993.71;;;1.48;94.63
65872;BME280;52653;50.080;21.992;2022-12-10T07:53:52;98010.65;;;1.49;94.54
65872;BME280;52653;50.080;21.992;2022-12-10T07:56:25;98013.92;;;1.46;94.59
65872;BME280;52653;50.080;21.992;2022-12-10T07:58:58;98013.73;;;1.46;94.55
65872;BME280;52653;50.080;21.992;2022-12-10T08:01:30;98012.36;;;1.46;94.77
65872;BME280;52653;50.080;21.992;2022-12-10T08:04:02;98007.17;;;1.46;94.62
65872;BME280;52653;50.080;21.992;2022-12-10T08:06:35;98003.73;;;1.49;94.65
65872;BME280;52653;50.080;21.992;2022-12-10T08:09:07;98003.42;;;1.52;94.69
65872;BME280;52653;50.080;21.992;2022-12-10T08:11:39;97999.64;;;1.53;94.38
65872;BME280;52653;50.080;21.992;2022-12-10T08:14:12;97999.66;;;1.55;94.45
65872;BME280;52653;50.080;21.992;2022-12-10T08:16:44;97998.80;;;1.54;94.37
65872;BME280;52653;50.080;21.992;2022-12-10T08:19:17;97999.64;;;1.53;94.32
65872;BME280;52653;50.080;21.992;2022-12-10T08:21:55;98000.52;;;1.54;94.50
65872;BME280;52653;50.080;21.992;2022-12-10T08:24:27;98001.77;;;1.58;94.37
65872;BME280;52653;50.080;21.992;2022-12-10T08:27:00;98003.14;;;1.58;94.31
65872;BME280;52653;50.080;21.992;2022-12-10T08:29:32;98009.68;;;1.54;94.12
65872;BME280;52653;50.080;21.992;2022-12-10T08:32:05;98006.02;;;1.52;94.20
65872;BME280;52653;50.080;21.992;2022-12-10T08:34:37;98011.70;;;1.51;94.28
65872;BME280;52653;50.080;21.992;2022-12-10T08:37:09;98014.81;;;1.52;94.42
65872;BME280;52653;50.080;21.992;2022-12-10T08:39:42;98001.15;;;1.51;94.28
65872;BME280;52653;50.080;21.992;2022-12-10T08:42:14;98002.02;;;1.51;94.20
65872;BME280;52653;50.080;21.992;2022-12-10T08:44:47;98012.39;;;1.50;94.22
65872;BME280;52653;50.080;21.992;2022-12-10T08:47:21;98016.08;;;1.56;94.45
65872;BME280;52653;50.080;21.992;2022-12-10T08:49:53;98018.21;;;1.64;94.74
65872;BME280;52653;50.080;21.992;2022-12-10T08:52:26;98029.68;;;1.72;94.57
65872;BME280;52653;50.080;21.992;2022-12-10T08:55:01;98038.00;;;1.75;94.10
65872;BME280;52653;50.080;21.992;2022-12-10T08:57:34;98044.39;;;1.73;93.23
65872;BME280;52653;50.080;21.992;2022-12-10T09:00:08;98049.23;;;1.73;93.35
65872;BME280;52653;50.080;21.992;2022-12-10T09:02:41;98054.42;;;1.75;93.39
65872;BME280;52653;50.080;21.992;2022-12-10T09:05:13;98058.22;;;1.75;93.09
65872;BME280;52653;50.080;21.992;2022-12-10T09:07:46;98052.00;;;1.73;92.94
65872;BME280;52653;50.080;21.992;2022-12-10T09:10:19;98049.10;;;1.78;93.22
65872;BME280;52653;50.080;21.992;2022-12-10T09:12:52;98046.70;;;1.81;93.31
65872;BME280;52653;50.080;21.992;2022-12-10T09:15:32;98052.95;;;1.85;93.31
65872;BME280;52653;50.080;21.992;2022-12-10T09:18:05;98059.02;;;1.87;93.15
65872;BME280;52653;50.080;21.992;2022-12-10T09:20:38;98065.91;;;1.84;92.84
65872;BME280;52653;50.080;21.992;2022-12-10T09:23:10;98067.59;;;1.78;92.61
65872;BME280;52653;50.080;21.992;2022-12-10T09:25:42;98069.16;;;1.79;93.43
65872;BME280;52653;50.080;21.992;2022-12-10T09:28:17;98074.21;;;1.84;93.55
65872;BME280;52653;50.080;21.992;2022-12-10T09:30:58;98069.70;;;1.81;92.94
65872;BME280;52653;50.080;21.992;2022-12-10T09:33:32;98061.51;;;1.75;92.60
65872;BME280;52653;50.080;21.992;2022-12-10T09:36:06;98057.38;;;1.77;92.96
65872;BME280;52653;50.080;21.992;2022-12-10T09:38:41;98056.73;;;1.80;93.04
65872;BME280;52653;50.080;21.992;2022-12-10T09:41:29;98055.70;;;1.81;92.71
65872;BME280;52653;50.080;21.992;2022-12-10T09:44:07;98053.44;;;1.80;92.40
65872;BME280;52653;50.080;21.992;2022-12-10T09:46:50;98048.95;;;1.81;92.57
65872;BME280;52653;50.080;21.992;2022-12-10T09:49:29;98048.28;;;1.84;92.69
65872;BME280;52653;50.080;21.992;2022-12-10T09:52:09;98044.64;;;1.84;92.31
65872;BME280;52653;50.080;21.992;2022-12-10T09:54:46;98034.92;;;1.79;91.79
65872;BME280;52653;50.080;21.992;2022-12-10T09:57:23;98025.04;;;1.74;92.07
65872;BME280;52653;50.080;21.992;2022-12-10T10:00:00;98022.27;;;1.73;92.19
65872;BME280;52653;50.080;21.992;2022-12-10T10:02:41;98022.95;;;1.74;92.22
65872;BME280;52653;50.080;21.992;2022-12-10T10:05:19;98015.55;;;1.77;92.16
65872;BME280;52653;50.080;21.992;2022-12-10T10:07:53;98015.55;;;1.77;92.03
65872;BME280;52653;50.080;21.992;2022-12-10T10:10:29;98018.15;;;1.77;91.95
65872;BME280;52653;50.080;21.992;2022-12-10T10:13:14;98018.11;;;1.72;91.54
65872;BME280;52653;50.080;21.992;2022-12-10T10:15:48;98016.52;;;1.67;91.89
65872;BME280;52653;50.080;21.992;2022-12-10T10:18:34;98020.15;;;1.67;92.20
65872;BME280;52653;50.080;21.992;2022-12-10T10:21:16;98025.35;;;1.70;92.37
65872;BME280;52653;50.080;21.992;2022-12-10T10:23:52;98025.36;;;1.72;92.34
65872;BME280;52653;50.080;21.992;2022-12-10T10:26:27;98021.92;;;1.74;92.24
65872;BME280;52653;50.080;21.992;2022-12-10T10:29:02;98024.35;;;1.75;92.05
65872;BME280;52653;50.080;21.992;2022-12-10T10:31:40;98030.06;;;1.76;92.04
65872;BME280;52653;50.080;21.992;2022-12-10T10:34:18;98031.14;;;1.79;91.95
65872;BME280;52653;50.080;21.992;2022-12-10T10:36:57;98039.48;;;1.85;92.24
65872;BME280;52653;50.080;21.992;2022-12-10T10:39:31;98039.66;;;1.88;92.16
65872;BME280;52653;50.080;21.992;2022-12-10T10:42:09;98035.56;;;1.93;91.81
65872;BME280;52653;50.080;21.992;2022-12-10T10:44:42;98043.19;;;1.95;91.85
65872;BME280;52653;50.080;21.992;2022-12-10T10:47:30;98049.77;;;1.98;91.51
65872;BME280;52653;50.080;21.992;2022-12-10T10:50:12;98053.20;;;1.93;90.76
65872;BME280;52653;50.080;21.992;2022-12-10T10:52:55;98055.59;;;1.90;90.87
65872;BME280;52653;50.080;21.992;2022-12-10T10:55:33;98058.16;;;1.89;91.20
65872;BME280;52653;50.080;21.992;2022-12-10T10:58:13;98055.72;;;1.85;90.83
65872;BME280;52653;50.080;21.992;2022-12-10T11:00:56;98062.44;;;1.81;90.88
65872;BME280;52653;50.080;21.992;2022-12-10T11:03:32;98059.98;;;1.78;91.15
65872;BME280;52653;50.080;21.992;2022-12-10T11:06:08;98055.11;;;1.75;91.23
65872;BME280;52653;50.080;21.992;2022-12-10T11:08:43;98051.83;;;1.74;91.14
65872;BME280;52653;50.080;21.992;2022-12-10T11:11:20;98053.54;;;1.72;91.15
65872;BME280;52653;50.080;21.992;2022-12-10T11:13:54;98052.66;;;1.69;90.75
65872;BME280;52653;50.080;21.992;2022-12-10T11:16:44;98053.01;;;1.70;90.73
65872;BME280;52653;50.080;21.992;2022-12-10T11:19:22;98053.86;;;1.68;90.28
65872;BME280;52653;50.080;21.992;2022-12-10T11:22:17;98055.45;;;1.72;90.59
65872;BME280;52653;50.080;21.992;2022-12-10T11:24:51;98053.27;;;1.80;90.57
65872;BME280;52653;50.080;21.992;2022-12-10T11:27:42;98049.48;;;1.83;90.04
65872;BME280;52653;50.080;21.992;2022-12-10T11:30:22;98044.48;;;1.87;89.98
65872;BME280;52653;50.080;21.992;2022-12-10T11:33:09;98044.36;;;1.91;90.18
65872;BME280;52653;50.080;21.992;2022-12-10T11:35:53;98042.33;;;1.99;90.57
65872;BME280;52653;50.080;21.992;2022-12-10T11:38:41;98045.63;;;2.02;90.49
65872;BME280;52653;50.080;21.992;2022-12-10T11:41:24;98043.02;;;1.99;90.18
65872;BME280;52653;50.080;21.992;2022-12-10T11:44:12;98040.41;;;1.95;90.02
65872;BME280;52653;50.080;21.992;2022-12-10T11:47:00;98045.08;;;1.92;90.03
65872;BME280;52653;50.080;21.992;2022-12-10T11:49:40;98044.05;;;1.96;90.34
65872;BME280;52653;50.080;21.992;2022-12-10T11:52:20;98045.09;;;1.95;89.93
65872;BME280;52653;50.080;21.992;2022-12-10T11:55:05;98048.31;;;1.89;89.57
65872;BME280;52653;50.080;21.992;2022-12-10T11:57:49;98053.13;;;1.85;89.59
65872;BME280;52653;50.080;21.992;2022-12-10T12:00:25;98055.70;;;1.81;89.60
65872;BME280;52653;50.080;21.992;2022-12-10T12:03:34;98055.69;;;1.80;89.74
65872;BME280;52653;50.080;21.992;2022-12-10T12:06:25;98055.52;;;1.82;90.20
65872;BME280;52653;50.080;21.992;2022-12-10T12:09:05;98057.61;;;1.83;90.03
65872;BME280;52653;50.080;21.992;2022-12-10T12:11:52;98059.48;;;1.79;89.87
65872;BME280;52653;50.080;21.992;2022-12-10T12:14:29;98059.08;;;1.73;90.06
65872;BME280;52653;50.080;21.992;2022-12-10T12:17:07;98051.45;;;1.69;89.89
65872;BME280;52653;50.080;21.992;2022-12-10T12:19:44;98049.02;;;1.66;90.00
65872;BME280;52653;50.080;21.992;2022-12-10T12:22:24;98050.58;;;1.69;89.99
65872;BME280;52653;50.080;21.992;2022-12-10T12:25:00;98054.05;;;1.73;90.08
65872;BME280;52653;50.080;21.992;2022-12-10T12:27:36;98056.49;;;1.74;89.81
65872;BME280;52653;50.080;21.992;2022-12-10T12:30:16;98057.21;;;1.78;89.36
65872;BME280;52653;50.080;21.992;2022-12-10T12:32:54;98050.33;;;1.80;89.43
65872;BME280;52653;50.080;21.992;2022-12-10T12:35:36;98041.19;;;1.82;89.36
65872;BME280;52653;50.080;21.992;2022-12-10T12:38:23;98044.64;;;1.84;89.51
65872;BME280;52653;50.080;21.992;2022-12-10T12:41:03;98044.31;;;1.85;89.81
65872;BME280;52653;50.080;21.992;2022-12-10T12:43:43;98044.30;;;1.83;89.80
65872;BME280;52653;50.080;21.992;2022-12-10T12:46:20;98044.10;;;1.79;89.85
65872;BME280;52653;50.080;21.992;2022-12-10T12:48:58;98047.69;;;1.76;90.02
65872;BME280;52653;50.080;21.992;2022-12-10T12:51:38;98057.02;;;1.75;90.11
65872;BME280;52653;50.080;21.992;2022-12-10T12:54:12;98061.16;;;1.73;89.85
65872;BME280;52653;50.080;21.992;2022-12-10T12:56:55;98068.23;;;1.73;89.90
65872;BME280;52653;50.080;21.992;2022-12-10T12:59:49;98064.58;;;1.70;89.80
65872;BME280;52653;50.080;21.992;2022-12-10T13:02:46;98058.85;;;1.66;89.79
65872;BME280;52653;50.080;21.992;2022-12-10T13:05:26;98070.55;;;1.62;90.13
65872;BME280;52653;50.080;21.992;2022-12-10T13:08:28;98073.47;;;1.59;90.21
65872;BME280;52653;50.080;21.992;2022-12-10T13:11:14;98077.44;;;1.59;90.38
65872;BME280;52653;50.080;21.992;2022-12-10T13:17:01;98078.64;;;1.57;90.02
65872;BME280;52653;50.080;21.992;2022-12-10T13:19:34;98075.52;;;1.55;90.23
65872;BME280;52653;50.080;21.992;2022-12-10T13:22:09;98071.91;;;1.58;90.56
65872;BME280;52653;50.080;21.992;2022-12-10T13:25:14;98074.70;;;1.61;90.95
65872;BME280;52653;50.080;21.992;2022-12-10T13:27:57;98080.20;;;1.57;90.56
65872;BME280;52653;50.080;21.992;2022-12-10T13:31:18;98082.38;;;1.52;90.45
65872;BME280;52653;50.080;21.992;2022-12-10T13:34:22;98087.00;;;1.47;90.86
65872;BME280;52653;50.080;21.992;2022-12-10T13:37:17;98087.84;;;1.45;91.21
65872;BME280;52653;50.080;21.992;2022-12-10T13:39:59;98086.11;;;1.43;91.11
65872;BME280;52653;50.080;21.992;2022-12-10T13:42:35;98086.05;;;1.39;90.98
65872;BME280;52653;50.080;21.992;2022-12-10T13:45:30;98088.58;;;1.33;90.96
65872;BME280;52653;50.080;21.992;2022-12-10T13:48:30;98093.41;;;1.31;91.21
65872;BME280;52653;50.080;21.992;2022-12-10T13:51:14;98090.46;;;1.29;91.40
65872;BME280;52653;50.080;21.992;2022-12-10T13:54:05;98090.22;;;1.25;91.39
65872;BME280;52653;50.080;21.992;2022-12-10T13:56:53;98090.19;;;1.22;91.40